createdAt,value
2018-06-18T00:00:40.151Z,16.40
2018-06-18T00:01:40.151Z,16.49
2018-06-18T00:02:40.153Z,16.41
2018-06-18T00:03:40.152Z,16.46
2018-06-18T00:04:40.152Z,16.39
2018-06-18T00:05:40.152Z,16.34
2018-06-18T00:06:40.154Z,16.31
2018-06-18T00:07:40.159Z,16.36
2018-06-18T00:08:40.153Z,16.29
2018-06-18T00:09:40.153Z,16.31
2018-06-18T00:10:40.153Z,16.29
2018-06-18T00:11:40.156Z,16.28
2018-06-18T00:12:40.156Z,16.28
2018-06-18T00:13:40.154Z,16.21
2018-06-18T00:14:40.156Z,16.24
2018-06-18T00:15:40.154Z,16.18
2018-06-18T00:16:40.156Z,16.25
2018-06-18T00:17:40.155Z,16.25
2018-06-18T00:18:40.156Z,16.26
2018-06-18T00:19:40.156Z,16.26
2018-06-18T00:20:40.156Z,16.25
2018-06-18T00:21:40.156Z,16.36
2018-06-18T00:22:40.157Z,16.28
2018-06-18T00:23:40.156Z,16.31
2018-06-18T00:24:40.158Z,16.32
2018-06-18T00:25:40.158Z,16.32
2018-06-18T00:26:40.158Z,16.32
2018-06-18T00:27:40.158Z,16.29
2018-06-18T00:28:40.158Z,16.34
2018-06-18T00:29:40.158Z,16.34
2018-06-18T00:30:40.159Z,16.36
2018-06-18T00:31:40.159Z,16.29
2018-06-18T00:32:40.161Z,16.32
2018-06-18T00:33:40.162Z,16.29
2018-06-18T00:34:40.162Z,16.25
2018-06-18T00:35:40.162Z,16.18
2018-06-18T00:36:40.162Z,16.03
2018-06-18T00:37:40.163Z,16.12
2018-06-18T00:38:40.162Z,16.05
2018-06-18T00:39:40.162Z,15.98
2018-06-18T00:40:40.164Z,16.09
2018-06-18T00:41:40.163Z,16.02
2018-06-18T00:42:40.163Z,16.05
2018-06-18T00:43:40.162Z,16.18
2018-06-18T00:44:40.163Z,16.16
2018-06-18T00:45:40.164Z,16.21
2018-06-18T00:46:40.164Z,16.16
2018-06-18T00:47:40.165Z,16.17
2018-06-18T00:48:40.163Z,16.21
2018-06-18T00:49:40.163Z,16.24
2018-06-18T00:50:40.164Z,16.22
2018-06-18T00:51:40.164Z,16.21
2018-06-18T00:52:40.165Z,16.16
2018-06-18T00:53:40.165Z,16.24
2018-06-18T00:54:40.165Z,16.18
2018-06-18T00:55:40.164Z,16.24
2018-06-18T00:56:40.165Z,16.25
2018-06-18T00:57:40.166Z,16.13
2018-06-18T00:58:40.165Z,16.16
2018-06-18T00:59:40.165Z,16.18
2018-06-18T01:00:40.165Z,16.08
2018-06-18T01:01:40.166Z,16.17
2018-06-18T01:02:40.168Z,16.03
2018-06-18T01:03:40.166Z,16.13
2018-06-18T01:04:40.170Z,16.13
2018-06-18T01:05:40.168Z,16.08
2018-06-18T01:06:40.167Z,16.10
2018-06-18T01:07:40.167Z,16.03
2018-06-18T01:08:40.167Z,16.06
2018-06-18T01:09:40.169Z,16.06
2018-06-18T01:10:40.167Z,16.08
2018-06-18T01:11:40.171Z,16.09
2018-06-18T01:12:40.168Z,16.10
2018-06-18T01:13:40.168Z,16.09
2018-06-18T01:14:40.168Z,16.08
2018-06-18T01:15:40.168Z,16.02
2018-06-18T01:16:40.168Z,16.03
2018-06-18T01:17:40.168Z,16.06
2018-06-18T01:18:40.169Z,16.05
2018-06-18T01:19:40.169Z,16.06
2018-06-18T01:20:40.169Z,16.02
2018-06-18T01:21:40.172Z,15.92
2018-06-18T01:22:40.170Z,15.98
2018-06-18T01:23:40.170Z,16.00
2018-06-18T01:24:40.169Z,15.96
2018-06-18T01:25:40.172Z,16.06
2018-06-18T01:26:40.171Z,16.10
2018-06-18T01:27:40.169Z,16.08
2018-06-18T01:28:40.170Z,16.03
2018-06-18T01:29:40.174Z,16.05
2018-06-18T01:30:40.173Z,16.03
2018-06-18T01:31:40.171Z,16.13
2018-06-18T01:32:40.172Z,16.12
2018-06-18T01:33:40.172Z,16.12
2018-06-18T01:34:40.172Z,16.03
2018-06-18T01:35:40.171Z,16.05
2018-06-18T01:36:40.171Z,16.03
2018-06-18T01:37:40.172Z,16.08
2018-06-18T01:38:40.172Z,16.05
2018-06-18T01:39:40.172Z,16.08
2018-06-18T01:40:40.173Z,16.12
2018-06-18T01:41:40.172Z,16.16
2018-06-18T01:42:40.172Z,16.16
2018-06-18T01:43:40.172Z,16.08
2018-06-18T01:44:40.173Z,16.12
2018-06-18T01:45:40.173Z,16.16
2018-06-18T01:46:40.173Z,16.18
2018-06-18T01:47:40.173Z,16.18
2018-06-18T01:48:40.173Z,16.21
2018-06-18T01:49:40.174Z,16.26
2018-06-18T01:50:40.174Z,16.26
2018-06-18T01:51:40.172Z,16.25
2018-06-18T01:52:40.174Z,16.26
2018-06-18T01:53:40.174Z,16.26
2018-06-18T01:54:40.174Z,16.22
2018-06-18T01:55:40.174Z,16.17
2018-06-18T01:56:40.174Z,16.16
2018-06-18T01:57:40.181Z,16.24
2018-06-18T01:58:40.174Z,16.22
2018-06-18T01:59:40.174Z,16.17
2018-06-18T02:00:40.174Z,16.17
2018-06-18T02:01:40.173Z,16.17
2018-06-18T02:02:40.176Z,16.09
2018-06-18T02:03:40.175Z,16.08
2018-06-18T02:04:40.180Z,16.02
2018-06-18T02:05:40.175Z,16.00
2018-06-18T02:06:40.175Z,16.08
2018-06-18T02:07:40.175Z,16.06
2018-06-18T02:08:40.181Z,15.98
2018-06-18T02:09:40.175Z,16.06
2018-06-18T02:10:40.176Z,16.05
2018-06-18T02:11:40.175Z,16.10
2018-06-18T02:12:40.175Z,16.06
2018-06-18T02:13:40.175Z,16.02
2018-06-18T02:14:40.177Z,16.09
2018-06-18T02:15:40.175Z,16.06
2018-06-18T02:16:40.175Z,16.06
2018-06-18T02:17:40.177Z,16.09
2018-06-18T02:18:40.176Z,16.12
2018-06-18T02:19:40.176Z,16.08
2018-06-18T02:20:40.177Z,16.10
2018-06-18T02:21:40.176Z,16.00
2018-06-18T02:22:40.179Z,15.98
2018-06-18T02:23:40.177Z,15.99
2018-06-18T02:24:40.175Z,16.02
2018-06-18T02:25:40.177Z,15.99
2018-06-18T02:26:40.176Z,15.98
2018-06-18T02:27:40.175Z,16.00
2018-06-18T02:28:40.178Z,15.98
2018-06-18T02:29:40.177Z,15.98
2018-06-18T02:30:40.178Z,16.00
2018-06-18T02:31:40.177Z,15.99
2018-06-18T02:32:40.177Z,16.02
2018-06-18T02:33:40.176Z,16.08
2018-06-18T02:34:40.178Z,16.05
2018-06-18T02:35:40.187Z,16.09
2018-06-18T02:36:40.178Z,16.03
2018-06-18T02:37:40.177Z,16.08
2018-06-18T02:38:40.178Z,16.12
2018-06-18T02:39:40.177Z,16.00
2018-06-18T02:40:40.178Z,16.08
2018-06-18T02:41:40.178Z,15.98
2018-06-18T02:42:40.178Z,16.00
2018-06-18T02:43:40.177Z,15.98
2018-06-18T02:44:40.178Z,15.96
2018-06-18T02:45:40.178Z,15.96
2018-06-18T02:46:40.178Z,15.84
2018-06-18T02:47:40.178Z,15.81
2018-06-18T02:48:40.178Z,15.80
2018-06-18T02:49:40.180Z,15.72
2018-06-18T02:50:40.178Z,15.63
2018-06-18T02:51:40.178Z,15.62
2018-06-18T02:52:40.178Z,15.63
2018-06-18T02:53:40.184Z,15.59
2018-06-18T02:54:40.178Z,15.65
2018-06-18T02:55:40.177Z,15.65
2018-06-18T02:56:40.178Z,15.69
2018-06-18T02:57:40.177Z,15.80
2018-06-18T02:58:40.178Z,15.80
2018-06-18T02:59:40.176Z,15.81
2018-06-18T03:00:40.177Z,15.84
2018-06-18T03:01:40.177Z,15.90
2018-06-18T03:02:40.177Z,15.85
2018-06-18T03:03:40.176Z,15.85
2018-06-18T03:04:40.175Z,15.98
2018-06-18T03:05:40.175Z,15.94
2018-06-18T03:06:40.176Z,15.96
2018-06-18T03:07:40.174Z,16.02
2018-06-18T03:08:40.176Z,16.03
2018-06-18T03:09:40.177Z,16.06
2018-06-18T03:10:40.176Z,16.05
2018-06-18T03:11:40.175Z,16.06
2018-06-18T03:12:40.176Z,16.06
2018-06-18T03:13:40.176Z,16.03
2018-06-18T03:14:40.175Z,16.05
2018-06-18T03:15:40.175Z,16.02
2018-06-18T03:16:40.180Z,16.06
2018-06-18T03:17:40.175Z,16.02
2018-06-18T03:18:40.175Z,16.06
2018-06-18T03:19:40.175Z,16.00
2018-06-18T03:20:40.177Z,16.05
2018-06-18T03:21:40.174Z,16.08
2018-06-18T03:22:40.175Z,16.10
2018-06-18T03:23:40.174Z,16.10
2018-06-18T03:24:40.175Z,16.03
2018-06-18T03:25:40.186Z,16.06
2018-06-18T03:26:40.175Z,16.08
2018-06-18T03:27:40.175Z,15.98
2018-06-18T03:28:40.173Z,15.99
2018-06-18T03:29:40.174Z,16.06
2018-06-18T03:30:40.175Z,15.91
2018-06-18T03:31:40.175Z,15.94
2018-06-18T03:32:40.175Z,15.90
2018-06-18T03:33:40.174Z,15.84
2018-06-18T03:34:40.175Z,15.80
2018-06-18T03:35:40.173Z,15.83
2018-06-18T03:36:40.173Z,15.78
2018-06-18T03:37:40.175Z,15.80
2018-06-18T03:38:40.174Z,15.73
2018-06-18T03:39:40.175Z,15.73
2018-06-18T03:40:40.174Z,15.72
2018-06-18T03:41:40.173Z,15.73
2018-06-18T03:42:40.174Z,15.76
2018-06-18T03:43:40.174Z,15.81
2018-06-18T03:44:40.173Z,15.76
2018-06-18T03:45:40.174Z,15.81
2018-06-18T03:46:40.176Z,15.84
2018-06-18T03:47:40.172Z,15.88
2018-06-18T03:48:40.172Z,15.88
2018-06-18T03:49:40.172Z,15.90
2018-06-18T03:50:40.173Z,15.91
2018-06-18T03:51:40.173Z,15.78
2018-06-18T03:52:40.175Z,15.94
2018-06-18T03:53:40.174Z,15.98
2018-06-18T03:54:40.175Z,15.91
2018-06-18T03:55:40.172Z,15.98
2018-06-18T03:56:40.173Z,15.92
2018-06-18T03:57:40.175Z,15.99
2018-06-18T03:58:40.172Z,15.94
2018-06-18T03:59:40.173Z,15.98
2018-06-18T04:00:40.173Z,15.99
2018-06-18T04:01:40.173Z,15.99
2018-06-18T04:02:40.173Z,16.02
2018-06-18T04:03:40.174Z,15.98
2018-06-18T04:04:40.172Z,16.09
2018-06-18T04:05:40.173Z,16.08
2018-06-18T04:06:40.173Z,16.03
2018-06-18T04:07:40.172Z,16.05
2018-06-18T04:08:40.174Z,16.02
2018-06-18T04:09:40.173Z,16.17
2018-06-18T04:10:40.173Z,16.16
2018-06-18T04:11:40.174Z,16.17
2018-06-18T04:12:40.174Z,16.16
2018-06-18T04:13:40.174Z,16.16
2018-06-18T04:14:40.173Z,16.22
2018-06-18T04:15:40.174Z,16.16
2018-06-18T04:16:40.175Z,16.16
2018-06-18T04:17:40.173Z,16.17
2018-06-18T04:18:40.176Z,16.29
2018-06-18T04:19:40.174Z,16.17
2018-06-18T04:20:40.174Z,16.22
2018-06-18T04:21:40.178Z,16.17
2018-06-18T04:22:40.174Z,16.13
2018-06-18T04:23:40.175Z,16.29
2018-06-18T04:24:40.179Z,16.18
2018-06-18T04:25:40.177Z,16.21
2018-06-18T04:26:40.176Z,16.18
2018-06-18T04:27:40.174Z,16.22
2018-06-18T04:28:40.174Z,16.31
2018-06-18T04:29:40.175Z,16.26
2018-06-18T04:30:40.177Z,16.28
2018-06-18T04:31:40.177Z,16.25
2018-06-18T04:32:40.177Z,16.31
2018-06-18T04:33:40.177Z,16.40
2018-06-18T04:34:40.177Z,16.36
2018-06-18T04:35:40.179Z,16.40
2018-06-18T04:36:40.177Z,16.34
2018-06-18T04:37:40.203Z,16.31
2018-06-18T04:38:40.231Z,16.21
2018-06-18T04:39:40.179Z,16.24
2018-06-18T04:40:40.178Z,16.21
2018-06-18T04:41:40.179Z,16.13
2018-06-18T04:42:40.179Z,16.16
2018-06-18T04:43:40.177Z,16.12
2018-06-18T04:44:40.181Z,16.18
2018-06-18T04:45:40.179Z,16.18
2018-06-18T04:46:40.179Z,16.16
2018-06-18T04:47:40.178Z,16.17
2018-06-18T04:48:40.179Z,16.24
2018-06-18T04:49:40.180Z,16.26
2018-06-18T04:50:40.181Z,16.31
2018-06-18T04:51:40.179Z,16.28
2018-06-18T04:52:40.179Z,16.28
2018-06-18T04:53:40.179Z,16.29
2018-06-18T04:54:40.181Z,16.31
2018-06-18T04:55:40.179Z,16.24
2018-06-18T04:56:40.186Z,16.31
2018-06-18T04:57:40.180Z,16.37
2018-06-18T04:58:40.183Z,16.36
2018-06-18T04:59:40.182Z,16.34
2018-06-18T05:00:40.181Z,16.28
2018-06-18T05:01:40.181Z,16.25
2018-06-18T05:02:40.181Z,16.22
2018-06-18T05:03:40.180Z,16.13
2018-06-18T05:04:40.181Z,16.21
2018-06-18T05:05:40.182Z,16.28
2018-06-18T05:06:40.182Z,16.24
2018-06-18T05:07:40.181Z,16.29
2018-06-18T05:08:40.182Z,16.22
2018-06-18T05:09:40.183Z,16.21
2018-06-18T05:10:40.183Z,16.18
2018-06-18T05:11:40.181Z,16.16
2018-06-18T05:12:40.188Z,16.16
2018-06-18T05:13:40.181Z,16.12
2018-06-18T05:14:40.183Z,16.21
2018-06-18T05:15:40.181Z,16.16
2018-06-18T05:16:40.182Z,16.18
2018-06-18T05:17:40.182Z,16.16
2018-06-18T05:18:40.183Z,16.26
2018-06-18T05:19:40.183Z,16.26
2018-06-18T05:20:40.213Z,16.24
2018-06-18T05:21:40.193Z,16.12
2018-06-18T05:22:40.184Z,16.25
2018-06-18T05:23:40.183Z,16.26
2018-06-18T05:24:40.185Z,16.29
2018-06-18T05:25:40.184Z,16.36
2018-06-18T05:26:40.184Z,16.29
2018-06-18T05:27:40.184Z,16.31
2018-06-18T05:28:40.188Z,16.37
2018-06-18T05:29:40.185Z,16.34
2018-06-18T05:30:40.186Z,16.34
2018-06-18T05:31:40.184Z,16.39
2018-06-18T05:32:40.184Z,16.39
2018-06-18T05:33:40.185Z,16.36
2018-06-18T05:34:40.186Z,16.32
2018-06-18T05:35:40.191Z,16.29
2018-06-18T05:36:40.186Z,16.24
2018-06-18T05:37:40.189Z,16.17
2018-06-18T05:38:40.186Z,16.24
2018-06-18T05:39:40.186Z,16.21
2018-06-18T05:40:40.187Z,16.29
2018-06-18T05:41:40.188Z,16.31
2018-06-18T05:42:40.188Z,16.34
2018-06-18T05:43:40.201Z,16.37
2018-06-18T05:44:40.188Z,16.36
2018-06-18T05:45:40.188Z,16.36
2018-06-18T05:46:40.187Z,16.43
2018-06-18T05:47:40.187Z,16.21
2018-06-18T05:48:40.187Z,16.26
2018-06-18T05:49:40.189Z,16.28
2018-06-18T05:50:40.249Z,16.29
2018-06-18T05:51:40.188Z,16.32
2018-06-18T05:52:40.189Z,16.39
2018-06-18T05:53:40.193Z,16.44
2018-06-18T05:54:40.193Z,16.43
2018-06-18T05:55:40.190Z,16.47
2018-06-18T05:56:40.191Z,16.47
2018-06-18T05:57:40.192Z,16.40
2018-06-18T05:58:40.193Z,16.37
2018-06-18T05:59:40.190Z,16.39
2018-06-18T06:00:40.191Z,16.37
2018-06-18T06:01:40.190Z,16.39
2018-06-18T06:02:40.217Z,16.40
2018-06-18T06:03:40.299Z,16.41
2018-06-18T06:04:40.257Z,16.51
2018-06-18T06:05:40.249Z,16.59
2018-06-18T06:06:40.205Z,16.54
2018-06-18T06:07:40.250Z,16.62
2018-06-18T06:08:40.193Z,16.65
2018-06-18T06:09:40.194Z,16.65
2018-06-18T06:10:40.195Z,16.66
2018-06-18T06:11:40.195Z,16.76
2018-06-18T06:12:40.195Z,16.66
2018-06-18T06:13:40.196Z,16.65
2018-06-18T06:14:40.198Z,16.68
2018-06-18T06:15:40.197Z,16.69
2018-06-18T06:16:40.197Z,16.69
2018-06-18T06:17:40.199Z,16.69
2018-06-18T06:18:40.199Z,16.79
2018-06-18T06:19:40.201Z,16.79
2018-06-18T06:20:40.199Z,16.79
2018-06-18T06:21:40.204Z,16.86
2018-06-18T06:22:40.202Z,16.80
2018-06-18T06:23:40.201Z,16.89
2018-06-18T06:24:40.202Z,16.91
2018-06-18T06:25:40.203Z,16.83
2018-06-18T06:26:40.204Z,16.91
2018-06-18T06:27:40.202Z,16.91
2018-06-18T06:28:40.207Z,16.98
2018-06-18T06:29:40.265Z,16.98
2018-06-18T06:30:40.205Z,16.97
2018-06-18T06:31:40.206Z,17.12
2018-06-18T06:32:40.207Z,17.17
2018-06-18T06:33:40.208Z,17.19
2018-06-18T06:34:40.209Z,17.22
2018-06-18T06:35:40.209Z,17.30
2018-06-18T06:36:40.209Z,17.20
2018-06-18T06:37:40.210Z,17.27
2018-06-18T06:38:40.212Z,17.23
2018-06-18T06:39:40.212Z,17.27
2018-06-18T06:40:40.213Z,17.22
2018-06-18T06:41:40.216Z,17.22
2018-06-18T06:42:40.216Z,17.17
2018-06-18T06:43:40.217Z,17.17
2018-06-18T06:44:40.217Z,17.32
2018-06-18T06:45:40.219Z,17.42
2018-06-18T06:46:40.227Z,17.35
2018-06-18T06:47:40.222Z,17.42
2018-06-18T06:48:40.225Z,17.42
2018-06-18T06:49:40.223Z,17.46
2018-06-18T06:50:40.225Z,17.49
2018-06-18T06:51:40.226Z,17.49
2018-06-18T06:52:40.449Z,17.46
2018-06-18T06:53:40.228Z,17.37
2018-06-18T06:54:40.230Z,17.24
2018-06-18T06:55:40.230Z,17.17
2018-06-18T06:56:40.231Z,17.24
2018-06-18T06:57:40.232Z,17.37
2018-06-18T06:58:40.234Z,17.66
2018-06-18T06:59:40.236Z,17.78
2018-06-18T07:00:40.236Z,17.86
2018-06-18T07:01:40.239Z,17.94
2018-06-18T07:02:40.239Z,17.87
2018-06-18T07:03:40.242Z,17.80
2018-06-18T07:04:40.243Z,17.82
2018-06-18T07:05:40.245Z,17.76
2018-06-18T07:06:40.247Z,17.76
2018-06-18T07:07:40.248Z,17.54
2018-06-18T07:08:40.249Z,17.53
2018-06-18T07:09:40.253Z,17.53
2018-06-18T07:10:40.254Z,17.53
2018-06-18T07:11:40.254Z,17.52
2018-06-18T07:12:40.260Z,17.60
2018-06-18T07:13:40.267Z,17.73
2018-06-18T07:14:40.260Z,17.69
2018-06-18T07:15:40.260Z,17.78
2018-06-18T07:16:40.263Z,17.87
2018-06-18T07:17:40.266Z,17.93
2018-06-18T07:18:40.267Z,17.91
2018-06-18T07:19:40.269Z,17.91
2018-06-18T07:20:40.269Z,18.05
2018-06-18T07:21:40.271Z,18.03
2018-06-18T07:22:40.276Z,17.98
2018-06-18T07:23:40.274Z,17.94
2018-06-18T07:24:40.276Z,18.00
2018-06-18T07:25:40.277Z,18.03
2018-06-18T07:26:40.284Z,18.08
2018-06-18T07:27:40.281Z,18.03
2018-06-18T07:28:40.291Z,18.02
2018-06-18T07:29:40.286Z,17.97
2018-06-18T07:30:40.315Z,18.00
2018-06-18T07:31:40.288Z,17.98
2018-06-18T07:32:40.292Z,18.02
2018-06-18T07:33:40.293Z,18.16
2018-06-18T07:34:40.294Z,18.15
2018-06-18T07:35:40.298Z,18.11
2018-06-18T07:36:40.299Z,18.02
2018-06-18T07:37:40.299Z,18.02
2018-06-18T07:38:40.303Z,17.90
2018-06-18T07:39:40.302Z,17.86
2018-06-18T07:40:40.305Z,17.94
2018-06-18T07:41:40.307Z,17.88
2018-06-18T07:42:40.312Z,18.06
2018-06-18T07:43:40.310Z,18.02
2018-06-18T07:44:40.313Z,18.06
2018-06-18T07:45:40.363Z,18.03
2018-06-18T07:46:40.317Z,18.02
2018-06-18T07:47:40.317Z,17.95
2018-06-18T07:48:40.320Z,18.05
2018-06-18T07:49:40.322Z,18.15
2018-06-18T07:50:40.325Z,18.15
2018-06-18T07:51:40.359Z,18.27
2018-06-18T07:52:40.328Z,18.36
2018-06-18T07:53:40.330Z,18.52
2018-06-18T07:54:40.426Z,18.60
2018-06-18T07:55:40.377Z,18.70
2018-06-18T07:56:40.336Z,18.79
2018-06-18T07:57:40.354Z,19.05
2018-06-18T07:58:40.343Z,19.20
2018-06-18T07:59:40.344Z,19.32
2018-06-18T08:00:40.347Z,19.49
2018-06-18T08:01:40.349Z,19.48
2018-06-18T08:02:40.376Z,19.55
2018-06-18T08:03:40.384Z,19.52
2018-06-18T08:04:40.382Z,19.48
2018-06-18T08:05:40.363Z,19.62
2018-06-18T08:06:40.366Z,19.72
2018-06-18T08:07:40.369Z,20.00
2018-06-18T08:08:40.373Z,20.48
2018-06-18T08:09:40.426Z,21.03
2018-06-18T08:10:40.383Z,21.32
2018-06-18T08:11:40.388Z,21.38
2018-06-18T08:12:40.396Z,21.65
2018-06-18T08:13:40.398Z,22.00
2018-06-18T08:14:40.411Z,22.22
2018-06-18T08:15:40.410Z,22.62
2018-06-18T08:16:40.418Z,22.93
2018-06-18T08:17:40.424Z,22.96
2018-06-18T08:18:40.433Z,23.18
2018-06-18T08:19:40.439Z,23.26
2018-06-18T08:20:40.448Z,22.98
2018-06-18T08:21:40.457Z,22.53
2018-06-18T08:22:40.466Z,22.83
2018-06-18T08:23:40.502Z,22.99
2018-06-18T08:24:40.511Z,23.21
2018-06-18T08:25:40.557Z,23.20
2018-06-18T08:26:40.501Z,23.10
2018-06-18T08:27:40.511Z,22.98
2018-06-18T08:28:40.520Z,22.78
2018-06-18T08:29:40.528Z,22.56
2018-06-18T08:30:40.537Z,22.37
2018-06-18T08:31:40.547Z,22.04
2018-06-18T08:32:40.555Z,21.65
2018-06-18T08:33:40.561Z,21.19
2018-06-18T08:34:40.577Z,21.07
2018-06-18T08:35:40.578Z,21.33
2018-06-18T08:36:40.586Z,20.78
2018-06-18T08:37:40.593Z,20.56
2018-06-18T08:38:40.602Z,20.77
2018-06-18T08:39:40.610Z,21.33
2018-06-18T08:40:40.620Z,21.53
2018-06-18T08:41:40.625Z,21.77
2018-06-18T08:42:40.633Z,21.92
2018-06-18T08:43:40.640Z,22.08
2018-06-18T08:44:40.648Z,21.97
2018-06-18T08:45:40.658Z,22.07
2018-06-18T08:46:40.666Z,22.14
2018-06-18T08:47:40.681Z,21.97
2018-06-18T08:48:40.682Z,22.04
2018-06-18T08:49:40.691Z,22.22
2018-06-18T08:50:40.734Z,21.83
2018-06-18T08:51:40.709Z,21.72
2018-06-18T08:52:40.720Z,21.53
2018-06-18T08:53:40.728Z,21.13
2018-06-18T08:54:40.768Z,21.22
2018-06-18T08:55:40.744Z,21.59
2018-06-18T08:56:40.753Z,22.04
2018-06-18T08:57:40.762Z,22.06
2018-06-18T08:58:40.773Z,21.91
2018-06-18T08:59:40.789Z,21.60
2018-06-18T09:00:40.789Z,21.58
2018-06-18T09:01:40.797Z,21.54
2018-06-18T09:02:40.805Z,21.60
2018-06-18T09:03:40.813Z,21.56
2018-06-18T09:04:40.821Z,21.33
2018-06-18T09:05:40.828Z,21.20
2018-06-18T09:06:40.836Z,21.11
2018-06-18T09:07:40.842Z,21.01
2018-06-18T09:08:40.851Z,20.93
2018-06-18T09:09:40.858Z,21.01
2018-06-18T09:10:40.869Z,21.04
2018-06-18T09:11:40.872Z,21.07
2018-06-18T09:12:40.880Z,21.22
2018-06-18T09:13:40.888Z,21.07
2018-06-18T09:14:40.894Z,21.04
2018-06-18T09:15:40.900Z,21.00
2018-06-18T09:16:40.912Z,21.04
2018-06-18T09:17:40.914Z,21.32
2018-06-18T09:18:40.921Z,21.29
2018-06-18T09:19:40.930Z,21.59
2018-06-18T09:20:40.934Z,21.70
2018-06-18T09:21:40.943Z,22.00
2018-06-18T09:22:40.949Z,22.38
2018-06-18T09:23:40.997Z,22.55
2018-06-18T09:24:41.006Z,22.38
2018-06-18T09:25:40.971Z,22.08
2018-06-18T09:26:40.979Z,22.08
2018-06-18T09:27:40.985Z,21.91
2018-06-18T09:28:40.989Z,21.83
2018-06-18T09:29:40.999Z,22.08
2018-06-18T09:30:41.005Z,22.03
2018-06-18T09:31:41.013Z,21.97
2018-06-18T09:32:41.033Z,21.91
2018-06-18T09:33:41.026Z,21.83
2018-06-18T09:34:41.033Z,21.75
2018-06-18T09:35:41.068Z,21.74
2018-06-18T09:36:41.046Z,21.88
2018-06-18T09:37:41.053Z,21.75
2018-06-18T09:38:41.060Z,21.84
2018-06-18T09:39:41.070Z,22.19
2018-06-18T09:40:41.076Z,22.55
2018-06-18T09:41:41.082Z,22.84
2018-06-18T09:42:41.090Z,22.81
2018-06-18T09:43:41.095Z,22.76
2018-06-18T09:44:41.107Z,22.68
2018-06-18T09:45:41.113Z,22.68
2018-06-18T09:46:41.120Z,22.28
2018-06-18T09:47:41.127Z,22.21
2018-06-18T09:48:41.134Z,22.08
2018-06-18T09:49:41.143Z,21.89
2018-06-18T09:50:41.149Z,21.85
2018-06-18T09:51:41.156Z,21.84
2018-06-18T09:52:41.165Z,21.74
2018-06-18T09:53:41.172Z,21.56
2018-06-18T09:54:41.201Z,21.50
2018-06-18T09:55:41.224Z,21.38
2018-06-18T09:56:41.197Z,21.15
2018-06-18T09:57:41.309Z,21.40
2018-06-18T09:58:41.206Z,21.47
2018-06-18T09:59:41.218Z,21.53
2018-06-18T10:00:41.263Z,21.72
2018-06-18T10:01:41.280Z,21.94
2018-06-18T10:02:41.332Z,21.84
2018-06-18T10:03:41.321Z,21.60
2018-06-18T10:04:41.303Z,21.59
2018-06-18T10:05:41.356Z,21.60
2018-06-18T10:06:41.294Z,21.40
2018-06-18T10:07:41.313Z,21.40
2018-06-18T10:08:41.357Z,21.38
2018-06-18T10:09:41.374Z,21.60
2018-06-18T10:10:41.379Z,21.66
2018-06-18T10:11:41.345Z,21.85
2018-06-18T10:12:41.321Z,22.30
2018-06-18T10:13:41.516Z,22.36
2018-06-18T10:14:41.329Z,22.53
2018-06-18T10:15:41.356Z,22.59
2018-06-18T10:16:41.320Z,22.67
2018-06-18T10:17:41.326Z,22.31
2018-06-18T10:18:41.388Z,22.01
2018-06-18T10:19:41.338Z,21.81
2018-06-18T10:20:41.345Z,21.59
2018-06-18T10:21:41.350Z,21.65
2018-06-18T10:22:41.357Z,21.51
2018-06-18T10:23:41.362Z,21.37
2018-06-18T10:24:41.456Z,21.63
2018-06-18T10:25:41.374Z,21.78
2018-06-18T10:26:41.380Z,21.99
2018-06-18T10:27:41.385Z,22.03
2018-06-18T10:28:41.392Z,21.75
2018-06-18T10:29:41.397Z,21.66
2018-06-18T10:30:41.403Z,21.51
2018-06-18T10:31:41.408Z,21.62
2018-06-18T10:32:41.414Z,21.60
2018-06-18T10:33:41.472Z,21.62
2018-06-18T10:34:41.445Z,21.66
2018-06-18T10:35:41.515Z,21.48
2018-06-18T10:36:41.481Z,21.29
2018-06-18T10:37:41.458Z,21.29
2018-06-18T10:38:41.473Z,21.37
2018-06-18T10:39:41.464Z,21.47
2018-06-18T10:40:41.570Z,21.58
2018-06-18T10:41:41.542Z,21.66
2018-06-18T10:42:41.546Z,21.62
2018-06-18T10:43:41.501Z,21.58
2018-06-18T10:44:41.574Z,21.72
2018-06-18T10:45:41.535Z,21.66
2018-06-18T10:46:41.512Z,21.44
2018-06-18T10:47:41.538Z,21.37
2018-06-18T10:48:41.601Z,21.29
2018-06-18T10:49:41.569Z,21.29
2018-06-18T10:50:41.529Z,21.41
2018-06-18T10:51:41.510Z,21.53
2018-06-18T10:52:41.633Z,21.65
2018-06-18T10:53:41.519Z,21.77
2018-06-18T10:54:41.582Z,21.84
2018-06-18T10:55:41.536Z,21.94
2018-06-18T10:56:41.533Z,22.10
2018-06-18T10:57:41.538Z,22.15
2018-06-18T10:58:41.543Z,22.12
2018-06-18T10:59:41.548Z,22.16
2018-06-18T11:00:41.552Z,22.19
2018-06-18T11:01:41.559Z,22.06
2018-06-18T11:02:41.561Z,21.81
2018-06-18T11:03:41.688Z,21.63
2018-06-18T11:04:41.576Z,21.45
2018-06-18T11:08:10.981Z,21.35
2018-06-18T11:09:10.986Z,21.35
2018-06-18T11:10:11.000Z,21.22
2018-06-18T11:11:10.994Z,21.17
2018-06-18T11:12:11.001Z,21.26
2018-06-18T11:13:11.004Z,21.30
2018-06-18T11:14:11.007Z,21.40
2018-06-18T11:15:11.013Z,21.62
2018-06-18T11:16:11.140Z,21.65
2018-06-18T11:17:11.282Z,21.56
2018-06-18T11:18:11.025Z,21.62
2018-06-18T11:19:11.031Z,21.69
2018-06-18T11:20:11.034Z,21.75
2018-06-18T11:21:11.039Z,21.78
2018-06-18T11:22:11.043Z,21.66
2018-06-18T11:23:11.047Z,21.78
2018-06-18T11:24:11.056Z,21.69
2018-06-18T11:25:11.213Z,21.85
2018-06-18T11:26:12.346Z,22.03
2018-06-18T11:27:11.079Z,22.10
2018-06-18T11:28:11.087Z,22.37
2018-06-18T11:29:11.191Z,22.37
2018-06-18T11:30:11.078Z,22.55
2018-06-18T11:31:11.090Z,22.84
2018-06-18T11:32:11.097Z,22.71
2018-06-18T11:33:11.101Z,22.73
2018-06-18T11:34:11.187Z,22.93
2018-06-18T11:35:11.152Z,23.08
2018-06-18T11:36:11.114Z,23.13
2018-06-18T11:37:11.185Z,22.98
2018-06-18T11:38:11.162Z,22.83
2018-06-18T11:39:11.212Z,22.83
2018-06-18T11:40:11.161Z,22.80
2018-06-18T11:41:11.191Z,22.76
2018-06-18T11:42:11.202Z,22.71
2018-06-18T11:43:11.196Z,22.67
2018-06-18T11:44:11.156Z,22.53
2018-06-18T11:45:11.164Z,22.43
2018-06-18T11:46:11.168Z,22.37
2018-06-18T11:47:11.173Z,22.52
2018-06-18T11:48:11.187Z,22.40
2018-06-18T11:49:11.186Z,22.28
2018-06-18T11:50:11.246Z,22.12
2018-06-18T11:51:11.197Z,22.04
2018-06-18T11:52:11.203Z,22.07
2018-06-18T11:53:11.209Z,22.16
2018-06-18T11:54:11.215Z,22.23
2018-06-18T11:55:11.223Z,22.41
2018-06-18T11:56:11.226Z,22.33
2018-06-18T11:57:11.231Z,22.26
2018-06-18T11:58:11.237Z,22.22
2018-06-18T11:59:11.243Z,22.00
2018-06-18T12:00:11.248Z,21.91
2018-06-18T12:01:11.253Z,21.85
2018-06-18T12:02:11.258Z,21.96
2018-06-18T12:03:11.265Z,22.03
2018-06-18T12:04:11.365Z,22.06
2018-06-18T12:05:11.319Z,21.96
2018-06-18T12:06:11.335Z,21.92
2018-06-18T12:07:11.376Z,21.77
2018-06-18T12:08:11.311Z,21.77
2018-06-18T12:09:11.295Z,21.81
2018-06-18T12:10:11.300Z,21.78
2018-06-18T12:11:11.305Z,21.65
2018-06-18T12:12:11.310Z,21.65
2018-06-18T12:13:11.314Z,21.68
2018-06-18T12:14:11.319Z,21.53
2018-06-18T12:15:11.325Z,21.65
2018-06-18T12:16:11.329Z,21.72
2018-06-18T12:17:11.333Z,21.77
2018-06-18T12:18:11.336Z,21.91
2018-06-18T12:19:11.343Z,21.99
2018-06-18T12:20:11.592Z,22.08
2018-06-18T12:21:11.352Z,22.25
2018-06-18T12:22:11.410Z,22.30
2018-06-18T12:23:11.359Z,22.30
2018-06-18T12:24:11.364Z,22.22
2018-06-18T12:25:11.372Z,22.10
2018-06-18T12:26:11.394Z,22.04
2018-06-18T12:27:11.389Z,22.10
2018-06-18T12:28:11.416Z,22.06
2018-06-18T12:29:11.389Z,22.15
2018-06-18T12:30:11.394Z,22.16
2018-06-18T12:31:11.398Z,21.99
2018-06-18T12:32:11.402Z,21.83
2018-06-18T12:33:11.407Z,21.81
2018-06-18T12:34:11.423Z,21.77
2018-06-18T12:35:11.483Z,21.72
2018-06-18T12:36:11.467Z,21.70
2018-06-18T12:37:11.456Z,21.69
2018-06-18T12:38:11.498Z,21.75
2018-06-18T12:39:11.438Z,21.78
2018-06-18T12:40:11.541Z,21.83
2018-06-18T12:41:11.564Z,21.83
2018-06-18T12:42:11.447Z,21.85
2018-06-18T12:43:11.560Z,21.84
2018-06-18T12:44:11.456Z,21.84
2018-06-18T12:45:11.461Z,21.92
2018-06-18T12:46:11.465Z,21.91
2018-06-18T12:47:11.469Z,21.85
2018-06-18T12:48:11.474Z,21.78
2018-06-18T12:49:11.479Z,21.91
2018-06-18T12:50:11.482Z,21.77
2018-06-18T12:51:11.487Z,21.77
2018-06-18T12:52:11.491Z,21.77
2018-06-18T12:53:11.556Z,21.84
2018-06-18T12:54:11.502Z,21.83
2018-06-18T12:55:11.504Z,21.81